Time;durP1;ratioP1;P1;durP2;ratioP2;P2;SDS_P1;SDS_P2;PMS_P1;PMS_P2;Temp;Humidity;BMP_temperature;BMP_pressure;BME280_temperature;BME280_humidity;BME280_pressure;Samples;Min_cycle;Max_cycle;Signal;HPM_P1;HPM_P2
2022/06/06 00:01:43;;;;;;;37.03;3.42;;;;;;;23.41;53.42;99181.03;7312994;19;130409;-40
2022/06/06 00:04:08;;;;;;;26.02;2.60;;;;;;;23.40;53.25;99178.59;7314482;19;129245;-41
2022/06/06 00:06:34;;;;;;;29.92;2.95;;;;;;;23.38;53.60;99181.38;7313009;19;129007;-42
2022/06/06 00:08:59;;;;;;;22.08;2.28;;;;;;;23.41;53.89;99185.47;7313647;19;130035;-40
2022/06/06 00:11:25;;;;;;;22.65;2.17;;;;;;;23.41;53.67;99188.91;7312581;19;130610;-42
2022/06/06 00:13:51;;;;;;;24.73;2.47;;;;;;;23.40;53.55;99184.66;7314328;19;129203;-41
2022/06/06 00:16:16;;;;;;;23.83;2.13;;;;;;;23.41;54.48;99191.53;7313190;19;128967;-41
2022/06/06 00:18:42;;;;;;;32.70;3.05;;;;;;;23.29;53.00;99187.56;7313146;19;129485;-39
2022/06/06 00:21:11;;;;;;;23.77;2.30;;;;;;;22.97;50.51;99200.56;7312771;19;130344;-38
2022/06/06 00:23:37;;;;;;;21.15;2.05;;;;;;;22.95;49.67;99199.91;7313501;19;128819;-40
2022/06/06 00:26:07;;;;;;;28.43;2.60;;;;;;;22.90;51.12;99191.69;7313184;19;129390;-39
2022/06/06 00:28:34;;;;;;;23.30;2.17;;;;;;;23.17;53.35;99188.84;7313892;19;130503;-40
2022/06/06 00:34:48;;;;;;;25.63;2.28;;;;;;;23.25;53.02;99196.72;7311844;19;129363;-40
2022/06/06 00:36:33;;;;;;;26.75;2.55;;;;;;;23.36;54.47;99183.34;7312417;19;129083;-41
2022/06/06 00:38:59;;;;;;;26.58;2.45;;;;;;;23.31;53.57;99172.50;7313492;19;130138;-42
2022/06/06 00:41:25;;;;;;;9.40;1.50;;;;;;;23.40;52.90;99187.28;7312422;19;129160;-43
2022/06/06 00:44:11;;;;;;;55.03;4.68;;;;;;;23.41;53.75;99191.53;7310594;19;129146;-39
2022/06/06 00:46:40;;;;;;;23.70;2.35;;;;;;;23.40;53.64;99195.16;7310312;19;129267;-40
2022/06/06 00:49:09;;;;;;;36.60;3.25;;;;;;;23.39;53.23;99188.25;7312194;19;129040;-40
2022/06/06 00:51:35;;;;;;;20.45;2.13;;;;;;;23.43;53.69;99194.00;7309701;19;130747;-42
2022/06/06 00:54:03;;;;;;;33.83;3.17;;;;;;;23.42;54.59;99206.28;7313251;19;128940;-40
2022/06/06 00:56:37;;;;;;;31.00;2.58;;;;;;;23.44;53.50;99204.34;7312428;19;129389;-42
2022/06/06 00:59:07;;;;;;;41.63;3.50;;;;;;;23.44;54.59;99206.13;7309984;19;131198;-43
2022/06/06 01:01:35;;;;;;;33.83;3.08;;;;;;;23.45;53.93;99202.53;7311304;19;129434;-42
2022/06/06 01:04:03;;;;;;;29.23;2.72;;;;;;;23.19;51.71;99202.59;7312927;19;129738;-41
2022/06/06 01:06:32;;;;;;;23.10;2.00;;;;;;;22.99;50.41;99201.22;7310873;19;129063;-41
2022/06/06 01:09:00;;;;;;;32.78;2.90;;;;;;;22.96;49.60;99196.28;7312957;19;129410;-41
2022/06/06 01:11:26;;;;;;;24.27;2.30;;;;;;;23.11;51.34;99194.69;7311023;19;130403;-41
2022/06/06 01:13:53;;;;;;;24.33;2.20;;;;;;;23.15;52.43;99185.53;7312764;19;128766;-42
2022/06/06 01:16:45;;;;;;;25.77;2.42;;;;;;;23.29;54.74;99198.06;7311583;19;129120;-41
2022/06/06 01:19:25;;;;;;;41.08;3.30;;;;;;;23.33;54.36;99199.41;7311915;19;129519;-41
2022/06/06 01:22:20;;;;;;;24.65;2.17;;;;;;;23.39;54.88;99182.19;7310302;19;130456;-42
2022/06/06 01:25:03;;;;;;;33.78;3.05;;;;;;;23.42;54.25;99181.88;7309245;19;129450;-42
2022/06/06 01:27:46;;;;;;;25.67;2.42;;;;;;;23.42;55.24;99185.31;7311272;19;128940;-41
2022/06/06 01:30:15;;;;;;;33.50;2.97;;;;;;;23.43;53.72;99186.13;7309996;19;131362;-42
2022/06/06 01:32:48;;;;;;;30.77;2.72;;;;;;;23.42;54.19;99197.63;7312604;19;130523;-41
2022/06/06 01:35:32;;;;;;;21.00;2.40;;;;;;;23.44;54.71;99201.72;7311973;19;129249;-42
2022/06/06 01:37:57;;;;;;;23.73;2.13;;;;;;;23.44;53.38;99199.09;7311207;19;129387;-42
2022/06/06 01:40:27;;;;;;;18.20;2.03;;;;;;;23.43;53.89;99200.09;7312791;19;129381;-41
2022/06/06 01:42:56;;;;;;;20.60;1.90;;;;;;;23.44;53.65;99206.97;7311491;19;130351;-41
2022/06/06 01:45:31;;;;;;;41.92;3.95;;;;;;;23.46;53.54;99209.41;7311061;19;129198;-42
2022/06/06 01:48:10;;;;;;;34.08;2.67;;;;;;;23.47;55.33;99211.06;7308359;19;129386;-43
2022/06/06 01:50:38;;;;;;;27.98;2.55;;;;;;;23.01;50.77;99217.59;7309268;19;131558;-41
2022/06/06 01:53:18;;;;;;;31.60;2.72;;;;;;;22.96;49.38;99228.56;7310067;19;130401;-41
2022/06/06 01:55:46;;;;;;;35.25;3.33;;;;;;;22.96;50.27;99238.22;7310989;19;129756;-42
2022/06/06 01:58:25;;;;;;;30.75;2.85;;;;;;;23.23;53.97;99240.66;7310532;19;128986;-41
2022/06/06 02:00:52;;;;;;;18.55;1.80;;;;;;;23.30;52.91;99240.88;7310924;19;129038;-42
2022/06/06 02:03:17;;;;;;;27.45;2.47;;;;;;;23.35;52.48;99251.69;7311961;19;129695;-42
2022/06/06 02:05:43;;;;;;;41.70;3.60;;;;;;;23.40;52.80;99247.63;7310422;19;129815;-41
2022/06/06 02:08:09;;;;;;;30.27;2.90;;;;;;;23.42;52.71;99245.66;7311720;19;129546;-41
2022/06/06 02:10:35;;;;;;;16.77;1.92;;;;;;;23.44;53.02;99243.69;7309895;19;130238;-43
2022/06/06 02:13:01;;;;;;;25.00;2.42;;;;;;;23.45;53.49;99247.97;7318074;19;129299;-42
2022/06/06 02:15:27;;;;;;;27.02;2.42;;;;;;;23.46;53.11;99251.41;7316551;19;128955;-42
2022/06/06 02:17:53;;;;;;;19.33;2.03;;;;;;;23.45;53.35;99250.59;7318245;19;129533;-40
2022/06/06 02:20:22;;;;;;;31.48;2.88;;;;;;;23.46;54.08;99246.97;7317942;19;129191;-42
2022/06/06 02:22:48;;;;;;;17.30;2.15;;;;;;;23.47;53.60;99255.69;7317069;19;129748;-42
2022/06/06 02:25:14;;;;;;;36.58;3.45;;;;;;;23.47;54.20;99253.84;7317196;19;128947;-42
2022/06/06 02:27:41;;;;;;;29.83;2.75;;;;;;;23.50;53.99;99252.72;7317219;19;129167;-42
2022/06/06 02:30:10;;;;;;;25.25;2.60;;;;;;;23.50;54.28;99250.09;7315732;19;130703;-41
2022/06/06 02:32:35;;;;;;;24.90;2.25;;;;;;;23.50;54.22;99250.94;7316826;19;130896;-42
2022/06/06 02:35:01;;;;;;;26.27;2.35;;;;;;;23.04;50.26;99251.38;7317281;19;129141;-41
2022/06/06 02:37:29;;;;;;;30.50;3.00;;;;;;;23.01;49.85;99255.13;7313908;19;129030;-41
2022/06/06 02:39:55;;;;;;;20.13;1.98;;;;;;;22.98;49.98;99252.84;7317589;19;131169;-38
2022/06/06 02:42:21;;;;;;;27.35;2.58;;;;;;;23.25;51.94;99254.44;7315489;19;130543;-43
2022/06/06 02:44:48;;;;;;;26.50;2.40;;;;;;;23.23;52.99;99244.09;7317580;19;130987;-42
2022/06/06 02:47:14;;;;;;;24.10;2.20;;;;;;;23.33;52.73;99257.09;7316386;19;129044;-41
2022/06/06 02:49:39;;;;;;;32.40;2.83;;;;;;;23.38;52.66;99262.69;7315909;19;130377;-42
2022/06/06 02:52:05;;;;;;;29.67;2.65;;;;;;;23.43;52.88;99265.66;7312818;19;130078;-42
2022/06/06 02:54:31;;;;;;;28.47;2.57;;;;;;;23.48;53.22;99266.00;7316587;19;129503;-42
2022/06/06 02:56:58;;;;;;;32.97;2.90;;;;;;;23.48;53.42;99271.25;7313996;19;130229;-42
2022/06/06 02:59:26;;;;;;;24.25;2.42;;;;;;;23.47;53.36;99277.47;7316516;19;130435;-42
2022/06/06 03:01:51;;;;;;;22.85;2.22;;;;;;;23.48;53.24;99276.50;7314033;19;131492;-42
2022/06/06 03:04:18;;;;;;;21.85;2.28;;;;;;;23.48;53.80;99280.94;7316523;19;129520;-41
2022/06/06 03:07:07;;;;;;;;;;;;;;;23.56;55.82;99284.41;7314791;19;129336;-42
2022/06/06 03:10:01;;;;;;;19.02;2.13;;;;;;;23.50;55.05;99287.69;7314200;19;129019;-42
2022/06/06 03:12:42;;;;;;;25.90;2.22;;;;;;;23.51;54.94;99294.56;7313395;19;130373;-41
2022/06/06 03:15:23;;;;;;;36.22;3.30;;;;;;;23.52;55.17;99296.19;7313711;19;128977;-43
2022/06/06 03:21:20;;;;;;;31.67;2.88;;;;;;;22.92;50.33;99284.09;7313636;19;129347;-42
2022/06/06 03:24:01;;;;;;;28.00;2.55;;;;;;;23.01;49.63;99298.88;7314947;19;130403;-42
2022/06/06 03:26:59;;;;;;;18.92;1.92;;;;;;;23.17;53.69;99302.41;7314700;19;128960;-41
2022/06/06 03:29:50;;;;;;;10.65;1.52;;;;;;;23.23;54.51;99282.59;7315229;19;130642;-41
2022/06/06 03:32:37;;;;;;;22.65;2.05;;;;;;;23.36;53.58;99295.31;7313910;19;130931;-42
2022/06/06 03:35:34;;;;;;;60.83;4.90;;;;;;;23.33;54.72;99280.72;7314413;19;129303;-42
2022/06/06 03:37:59;;;;;;;18.55;1.98;;;;;;;23.44;52.83;99296.16;7314529;19;129936;-41
2022/06/06 03:40:36;;;;;;;27.85;2.53;;;;;;;23.48;54.32;99288.81;7315056;19;129657;-38
2022/06/06 03:43:11;;;;;;;23.83;2.30;;;;;;;23.45;54.76;99287.34;7311992;19;130345;-42
2022/06/06 03:45:52;;;;;;;33.13;3.05;;;;;;;23.49;55.60;99293.88;7313111;19;129896;-42
2022/06/06 03:48:36;;;;;;;30.27;2.72;;;;;;;23.50;55.14;99295.53;7313991;19;129076;-42
2022/06/06 03:51:27;;;;;;;23.60;2.22;;;;;;;23.53;55.01;99295.22;7313433;19;129316;-42
2022/06/06 03:54:19;;;;;;;30.30;2.80;;;;;;;23.54;55.31;99288.16;7313467;19;130296;-42
2022/06/06 03:57:13;;;;;;;32.10;3.00;;;;;;;23.53;54.91;99295.22;7314153;19;130130;-42
2022/06/06 03:59:40;;;;;;;36.92;3.22;;;;;;;23.43;53.98;99281.41;7313832;19;128928;-41
2022/06/06 04:02:09;;;;;;;25.55;2.47;;;;;;;23.51;53.39;99297.19;7313168;19;128941;-41
2022/06/06 04:04:35;;;;;;;18.13;1.80;;;;;;;23.25;51.29;99301.66;7314187;19;131116;-38
2022/06/06 04:07:02;;;;;;;36.33;3.27;;;;;;;22.95;50.67;99291.66;7312705;19;130418;-41
2022/06/06 04:09:32;;;;;;;37.53;3.15;;;;;;;23.03;49.40;99304.81;7313824;19;129663;-42
2022/06/06 04:12:06;;;;;;;19.88;2.00;;;;;;;23.12;52.22;99296.00;7312518;19;129054;-42
2022/06/06 04:14:43;;;;;;;25.42;2.38;;;;;;;23.26;53.16;99303.28;7315099;19;130184;-42
2022/06/06 04:17:20;;;;;;;23.60;2.30;;;;;;;23.35;54.43;99297.13;7313162;19;129697;-42
2022/06/06 04:20:10;;;;;;;24.60;2.28;;;;;;;23.41;53.93;99293.88;7314756;19;129477;-41
2022/06/06 04:22:52;;;;;;;33.92;3.20;;;;;;;23.45;54.64;99305.69;7313806;19;128817;-42
2022/06/06 04:25:43;;;;;;;19.90;1.98;;;;;;;23.50;54.67;99308.66;7314853;19;130519;-42
2022/06/06 04:28:28;;;;;;;29.85;2.85;;;;;;;23.50;54.96;99306.03;7314243;19;129412;-41
2022/06/06 04:31:16;;;;;;;23.85;2.17;;;;;;;23.52;54.57;99308.50;7312950;19;129683;-43
2022/06/06 04:34:00;;;;;;;29.40;2.55;;;;;;;23.53;55.20;99310.97;7311512;19;129997;-42
2022/06/06 04:36:31;;;;;;;23.33;2.33;;;;;;;23.51;53.12;99302.44;7312983;19;129059;-42
2022/06/06 04:39:20;;;;;;;23.02;2.13;;;;;;;23.53;55.35;99308.34;7313611;19;130501;-41
2022/06/06 04:41:58;;;;;;;25.08;2.40;;;;;;;23.54;54.27;99311.75;7313039;19;129747;-43
2022/06/06 04:44:34;;;;;;;30.70;2.72;;;;;;;23.54;54.97;99312.59;7313020;19;129623;-41
2022/06/06 04:47:10;;;;;;;24.38;2.25;;;;;;;23.51;54.53;99318.16;7313395;19;129957;-41
2022/06/06 04:49:35;;;;;;;42.30;3.65;;;;;;;23.54;53.93;99317.00;7312561;19;129789;-41
2022/06/06 04:52:03;;;;;;;24.67;2.22;;;;;;;23.07;50.78;99316.63;7311462;19;128991;-40
2022/06/06 04:54:30;;;;;;;26.63;2.45;;;;;;;23.01;50.43;99319.84;7313531;19;129458;-42
2022/06/06 04:56:59;;;;;;;24.17;2.25;;;;;;;23.03;49.85;99329.22;7311400;19;129164;-38
2022/06/06 04:59:26;;;;;;;21.75;2.00;;;;;;;23.25;52.35;99327.88;7312771;19;130311;-40
2022/06/06 05:01:52;;;;;;;25.80;2.45;;;;;;;23.32;52.39;99317.59;7310624;19;128988;-42
2022/06/06 05:04:17;;;;;;;22.55;2.03;;;;;;;23.40;52.84;99320.25;7313644;19;129297;-43
2022/06/06 05:06:46;;;;;;;59.40;4.57;;;;;;;23.42;53.52;99334.84;7310326;19;130351;-42
2022/06/06 05:09:17;;;;;;;17.95;1.90;;;;;;;23.46;53.97;99330.09;7312812;19;130421;-42
2022/06/06 05:11:51;;;;;;;56.97;4.43;;;;;;;23.49;53.38;99330.63;7309905;19;129126;-41
2022/06/06 05:14:19;;;;;;;21.83;2.00;;;;;;;23.50;54.32;99326.19;7312038;19;129784;-42
2022/06/06 05:17:14;;;;;;;43.45;3.45;;;;;;;23.52;53.93;99330.31;7311409;19;130052;-40
2022/06/06 05:19:58;;;;;;;15.13;1.83;;;;;;;23.54;54.75;99336.22;7312606;19;130437;-41
2022/06/06 05:22:54;;;;;;;11.35;1.38;;;;;;;23.56;55.52;99331.63;7311218;19;129465;-42
2022/06/06 05:25:39;;;;;;;19.90;1.88;;;;;;;23.54;54.78;99340.63;7311675;19;129930;-42
2022/06/06 05:28:23;;;;;;;28.83;2.63;;;;;;;23.53;55.07;99347.72;7312180;19;130803;-41
2022/06/06 05:31:17;;;;;;;27.38;2.55;;;;;;;23.55;54.64;99352.78;7310512;19;130291;-42
2022/06/06 05:33:55;;;;;;;28.23;2.63;;;;;;;23.55;55.45;99350.97;7312803;19;129019;-41
2022/06/06 05:36:41;;;;;;;13.93;1.70;;;;;;;23.05;50.71;99358.75;7310397;19;129281;-42
2022/06/06 05:39:30;;;;;;;29.52;2.65;;;;;;;23.04;49.64;99356.25;7310145;19;129237;-39
2022/06/06 05:42:25;;;;;;;23.10;2.17;;;;;;;23.14;52.12;99359.59;7309302;19;129586;-43
2022/06/06 05:45:09;;;;;;;37.33;3.20;;;;;;;23.23;53.18;99337.69;7311306;19;129486;-41
2022/06/06 05:48:09;;;;;;;32.58;2.97;;;;;;;23.32;54.37;99344.63;7312019;19;130394;-41
2022/06/06 05:50:38;;;;;;;30.13;2.72;;;;;;;23.47;53.11;99358.00;7308891;19;130369;-39
2022/06/06 05:53:09;;;;;;;25.10;2.25;;;;;;;23.49;53.42;99362.09;7311765;19;130413;-42
2022/06/06 05:55:43;;;;;;;43.90;4.03;;;;;;;23.52;54.33;99355.75;7310310;19;130784;-40
2022/06/06 05:58:21;;;;;;;24.55;2.08;;;;;;;23.51;54.64;99361.94;7310183;19;128985;-41
2022/06/06 06:01:05;;;;;;;;;;;;;;;23.59;55.16;99362.81;7309815;19;129762;-42
2022/06/06 06:04:04;;;;;;;42.65;3.83;;;;;;;23.57;54.45;99359.50;7306747;19;130466;-41
2022/06/06 06:06:39;;;;;;;12.73;1.40;;;;;;;23.59;54.23;99362.81;7311262;19;129055;-43
2022/06/06 06:09:20;;;;;;;20.42;1.98;;;;;;;23.57;54.87;99366.59;7310709;19;129061;-42
2022/06/06 06:12:04;;;;;;;32.80;2.88;;;;;;;23.58;54.78;99374.31;7305781;19;129577;-41
2022/06/06 06:14:50;;;;;;;27.30;2.38;;;;;;;23.56;55.13;99378.88;7310813;19;130466;-41
2022/06/06 06:17:21;;;;;;;19.85;1.83;;;;;;;23.56;53.80;99386.75;7309334;19;128881;-40
2022/06/06 06:20:00;;;;;;;21.42;2.20;;;;;;;23.11;50.38;99383.50;7309701;19;129554;-42
2022/06/06 06:22:30;;;;;;;26.73;2.40;;;;;;;23.05;49.62;99384.13;7306828;19;129075;-40
2022/06/06 06:25:00;;;;;;;38.17;3.38;;;;;;;23.04;49.26;99383.31;7309949;19;130401;-40
2022/06/06 06:27:28;;;;;;;21.40;1.98;;;;;;;23.28;52.20;99390.53;7309681;19;129094;-42
2022/06/06 06:29:53;;;;;;;30.67;2.67;;;;;;;23.36;52.53;99392.38;7310019;19;129226;-42
2022/06/06 06:32:25;;;;;;;35.47;2.80;;;;;;;23.41;53.90;99393.56;7307100;19;131071;-41
2022/06/06 06:35:02;;;;;;;37.92;3.60;;;;;;;23.44;53.18;99389.78;7309207;19;130934;-42
2022/06/06 06:37:50;;;;;;;23.50;2.22;;;;;;;23.53;54.38;99394.09;7310147;19;128887;-41
2022/06/06 06:40:15;;;;;;;16.42;1.73;;;;;;;23.53;52.93;99400.19;7308939;19;129470;-42
2022/06/06 06:43:01;;;;;;;29.65;2.67;;;;;;;23.49;55.00;99398.00;7310174;19;130778;-42
2022/06/06 06:45:31;;;;;;;28.77;2.53;;;;;;;23.54;53.66;99412.31;7308944;19;130403;-41
2022/06/06 06:48:10;;;;;;;10.65;1.42;;;;;;;23.55;54.97;99410.53;7308846;19;129387;-43
2022/06/06 06:50:52;;;;;;;19.77;1.70;;;;;;;23.57;55.32;99411.19;7307842;19;129629;-41
2022/06/06 06:53:39;;;;;;;24.05;1.90;;;;;;;23.47;55.64;99395.53;7310973;19;131443;-42
2022/06/06 06:56:10;;;;;;;27.95;2.50;;;;;;;23.57;53.21;99411.19;7309319;19;130416;-43
2022/06/06 06:59:09;;;;;;;21.92;2.00;;;;;;;23.53;55.38;99408.06;7315739;19;128937;-41
2022/06/06 07:08:32;;;;;;;25.42;2.17;;;;;;;23.58;54.52;99408.41;7315698;19;129935;-41
2022/06/06 07:10:54;;;;;;;29.73;2.55;;;;;;;23.09;49.80;99411.69;7315373;19;128822;-42
2022/06/06 07:13:38;;;;;;;12.82;1.38;;;;;;;23.31;52.04;99400.72;7314825;19;129848;-42
2022/06/06 07:16:18;;;;;;;17.50;1.75;;;;;;;23.39;53.88;99411.25;7314331;19;130260;-42
2022/06/06 07:18:47;;;;;;;37.17;3.45;;;;;;;23.44;53.38;99410.78;7315503;19;130259;-43
2022/06/06 07:21:15;;;;;;;23.55;2.17;;;;;;;23.44;53.74;99405.53;7314583;19;128801;-42
2022/06/06 07:23:42;;;;;;;47.28;3.80;;;;;;;23.50;52.76;99408.38;7313155;19;129047;-41
2022/06/06 07:26:08;;;;;;;25.15;2.20;;;;;;;23.53;53.02;99400.19;7314015;19;130120;-42
2022/06/06 07:28:33;;;;;;;18.95;1.77;;;;;;;23.56;53.55;99413.00;7314385;19;129411;-42
2022/06/06 07:31:11;;;;;;;27.80;2.47;;;;;;;23.58;54.58;99405.78;7313785;19;128857;-41
2022/06/06 07:33:55;;;;;;;37.75;3.03;;;;;;;23.59;54.75;99407.44;7315193;19;129224;-40
2022/06/06 07:36:29;;;;;;;21.20;1.95;;;;;;;23.57;55.02;99401.50;7315530;19;129486;-42
2022/06/06 07:39:15;;;;;;;29.20;2.45;;;;;;;23.58;55.02;99400.53;7315155;19;129757;-39
2022/06/06 07:42:15;;;;;;;33.58;2.97;;;;;;;23.59;54.76;99396.94;7312363;19;129094;-40
2022/06/06 07:44:56;;;;;;;42.70;3.60;;;;;;;23.57;55.23;99398.88;7314737;19;129164;-40
2022/06/06 07:47:54;;;;;;;15.65;1.58;;;;;;;23.53;53.63;99392.31;7314193;19;129232;-42
2022/06/06 07:50:24;;;;;;;27.52;2.40;;;;;;;23.07;50.94;99398.72;7315063;19;130966;-41
2022/06/06 07:53:02;;;;;;;32.60;2.83;;;;;;;23.09;49.98;99396.78;7314371;19;129190;-41
2022/06/06 07:55:33;;;;;;;25.55;2.25;;;;;;;23.09;51.42;99395.94;7314748;19;128941;-42
2022/06/06 07:58:16;;;;;;;33.15;2.80;;;;;;;23.31;52.66;99392.00;7313951;19;130285;-43
2022/06/06 08:00:45;;;;;;;23.52;2.00;;;;;;;23.39;52.64;99392.88;7314305;19;129551;-42
2022/06/06 08:03:30;;;;;;;26.30;2.38;;;;;;;23.44;54.42;99395.88;7315075;19;128872;-42
2022/06/06 08:06:27;;;;;;;35.08;2.97;;;;;;;23.49;53.50;99393.59;7314047;19;129685;-41
2022/06/06 08:09:02;;;;;;;26.43;2.27;;;;;;;23.56;53.81;99399.88;7311530;19;130248;-42
2022/06/06 08:11:42;;;;;;;26.38;2.22;;;;;;;23.55;55.26;99398.22;7311669;19;130123;-43
2022/06/06 08:14:17;;;;;;;31.00;2.58;;;;;;;23.56;54.81;99393.78;7316015;19;129545;-42
2022/06/06 08:17:13;;;;;;;23.58;2.22;;;;;;;23.60;54.83;99390.69;7312114;19;129526;-42
2022/06/06 08:19:48;;;;;;;41.83;3.25;;;;;;;23.59;53.31;99399.56;7314616;19;130280;-42
2022/06/06 08:22:15;;;;;;;39.38;3.45;;;;;;;23.57;53.72;99396.25;7310032;19;130403;-42
2022/06/06 08:24:42;;;;;;;;;;;;;;;23.64;55.36;99397.28;7314425;19;128928;-40
2022/06/06 08:27:12;;;;;;;31.98;2.85;;;;;;;23.59;54.82;99398.72;7312793;19;128926;-42
2022/06/06 08:29:39;;;;;;;27.52;2.35;;;;;;;23.61;53.94;99397.59;7314053;19;129406;-42
2022/06/06 08:32:05;;;;;;;28.75;2.35;;;;;;;23.50;52.49;99391.81;7311409;19;129165;-41
2022/06/06 08:34:34;;;;;;;23.75;2.17;;;;;;;23.11;50.11;99399.25;7311494;19;130277;-40
2022/06/06 08:37:14;;;;;;;24.98;2.22;;;;;;;23.09;50.09;99390.69;7313908;19;129853;-42
2022/06/06 08:39:39;;;;;;;23.10;2.08;;;;;;;23.10;51.01;99403.69;7312509;19;130079;-42
2022/06/06 08:42:28;;;;;;;31.20;2.70;;;;;;;23.36;54.58;99392.38;7312236;19;130323;-41
2022/06/06 08:45:15;;;;;;;26.85;2.22;;;;;;;23.43;54.44;99398.66;7313455;19;129186;-42
2022/06/06 08:47:46;;;;;;;15.02;1.55;;;;;;;23.44;53.24;99390.63;7313179;19;128906;-43
2022/06/06 08:50:44;;;;;;;22.73;2.03;;;;;;;23.53;55.10;99389.69;7312533;19;129731;-41
2022/06/06 08:53:26;;;;;;;22.45;1.95;;;;;;;23.56;52.76;99381.50;7314048;19;130819;-42
2022/06/06 08:55:54;;;;;;;46.13;3.92;;;;;;;23.56;54.72;99384.13;7312536;19;128932;-41
2022/06/06 08:59:16;;;;;;;27.75;2.40;;;;;;;23.57;55.35;99379.72;7313120;19;128930;-40
2022/06/06 09:02:06;;;;;;;33.97;2.90;;;;;;;23.60;54.97;99379.38;7306990;19;130312;-41
2022/06/06 09:04:56;;;;;;;36.20;3.22;;;;;;;23.61;55.58;99381.84;7307901;19;130943;-41
2022/06/06 09:07:58;;;;;;;21.77;1.98;;;;;;;23.61;54.68;99381.03;7310529;19;129230;-39
2022/06/06 09:10:35;;;;;;;23.33;2.13;;;;;;;23.62;55.42;99382.69;7310414;19;130359;-42
2022/06/06 09:13:04;;;;;;;;;;;;;;;23.68;55.66;99376.78;7314072;19;130571;-41
2022/06/06 09:16:00;;;;;;;34.13;3.03;;;;;;;23.62;54.91;99393.97;7312613;19;131107;-43
2022/06/06 09:18:34;;;;;;;20.98;1.80;;;;;;;23.19;50.87;99394.03;7312076;19;129271;-41
2022/06/06 09:21:16;;;;;;;16.85;1.60;;;;;;;23.01;50.06;99372.28;7310968;19;129219;-42
2022/06/06 09:23:53;;;;;;;47.30;3.80;;;;;;;23.10;50.19;99384.50;7311146;19;128966;-42
2022/06/06 09:26:47;;;;;;;20.88;1.80;;;;;;;23.31;53.74;99377.09;7311439;19;129196;-42
2022/06/06 09:29:37;;;;;;;27.58;2.28;;;;;;;23.40;54.25;99381.44;7311819;19;128949;-40
2022/06/06 09:32:18;;;;;;;35.00;2.88;;;;;;;23.46;53.46;99372.91;7309562;19;129058;-40
2022/06/06 09:35:11;;;;;;;36.88;2.95;;;;;;;23.50;54.60;99376.91;7309853;19;129209;-41
2022/06/06 09:37:56;;;;;;;40.85;3.33;;;;;;;23.57;54.99;99385.75;7309076;19;130377;-40
2022/06/06 09:40:31;;;;;;;30.27;2.42;;;;;;;23.47;53.74;99364.06;7311799;19;128895;-43
2022/06/06 09:43:08;;;;;;;23.08;1.85;;;;;;;23.52;54.44;99367.03;7311639;19;129781;-41
2022/06/06 09:45:45;;;;;;;17.52;1.80;;;;;;;23.58;54.96;99371.69;7311046;19;128995;-41
2022/06/06 09:48:23;;;;;;;29.67;2.58;;;;;;;23.60;53.90;99369.69;7311409;19;129397;-40
2022/06/06 09:51:09;;;;;;;40.33;3.35;;;;;;;23.62;53.86;99375.59;7310632;19;129187;-41
2022/06/06 10:00:02;;;;;;;21.15;1.98;;;;;;;23.60;55.33;99369.69;7311130;19;128914;-42
2022/06/06 10:02:31;;;;;;;21.42;1.73;;;;;;;23.24;50.38;99365.56;7308937;19;128773;-42
2022/06/06 10:05:24;;;;;;;25.90;2.13;;;;;;;23.13;50.20;99377.16;7310993;19;130342;-41
2022/06/06 10:08:19;;;;;;;28.50;2.35;;;;;;;23.11;49.58;99375.63;7310648;19;130644;-40
2022/06/06 10:11:19;;;;;;;27.35;2.33;;;;;;;23.34;54.14;99383.84;7309565;19;129142;-41
2022/06/06 10:14:02;;;;;;;44.45;3.55;;;;;;;23.42;54.66;99379.44;7310104;19;129447;-41
2022/06/06 10:16:38;;;;;;;29.65;2.47;;;;;;;23.47;53.93;99384.25;7309937;19;128868;-43
2022/06/06 10:19:27;;;;;;;21.63;1.90;;;;;;;23.52;54.90;99392.47;7311810;19;129258;-41
2022/06/06 10:22:23;;;;;;;21.15;2.05;;;;;;;23.57;54.82;99391.00;7307131;19;130309;-42
2022/06/06 10:25:13;;;;;;;20.00;1.85;;;;;;;23.59;55.33;99398.72;7310056;19;129045;-41
2022/06/06 10:27:50;;;;;;;29.60;2.60;;;;;;;23.58;54.92;99387.41;7308410;19;129349;-41
2022/06/06 10:30:31;;;;;;;25.58;2.20;;;;;;;23.59;53.30;99389.06;7310398;19;131492;-42
2022/06/06 10:33:02;;;;;;;17.45;1.77;;;;;;;23.62;53.87;99388.72;7314057;19;130505;-41
2022/06/06 10:35:30;;;;;;;24.65;2.08;;;;;;;23.61;53.67;99389.72;7316574;19;129041;-42
2022/06/06 10:38:05;;;;;;;28.67;2.40;;;;;;;23.59;54.72;99383.81;7316823;19;129240;-42
2022/06/06 10:40:46;;;;;;;24.92;1.98;;;;;;;23.61;55.70;99389.72;7315464;19;129513;-41
2022/06/06 10:43:14;;;;;;;24.98;2.10;;;;;;;23.61;54.52;99387.09;7316660;19;132078;-42
2022/06/06 10:45:48;;;;;;;43.28;3.67;;;;;;;23.34;51.64;99368.91;7316476;19;129727;-42
2022/06/06 10:48:19;;;;;;;27.17;2.33;;;;;;;23.12;51.02;99377.31;7317236;19;129025;-41
2022/06/06 10:51:42;;;;;;;23.67;2.10;;;;;;;23.12;49.73;99390.41;7316008;19;131270;-42
2022/06/06 10:54:26;;;;;;;26.40;2.25;;;;;;;23.31;51.01;99384.97;7316235;19;131908;-40
2022/06/06 10:57:06;;;;;;;27.95;2.22;;;;;;;23.39;53.01;99369.28;7316092;19;128932;-39
2022/06/06 10:59:50;;;;;;;28.52;2.38;;;;;;;23.49;54.36;99371.78;7317512;19;128993;-41
2022/06/06 11:02:39;;;;;;;19.58;1.58;;;;;;;23.54;54.40;99372.97;7315104;19;129244;-42
2022/06/06 11:05:33;;;;;;;31.15;2.55;;;;;;;23.55;55.18;99366.72;7316867;19;129695;-42
2022/06/06 11:08:14;;;;;;;31.10;2.63;;;;;;;23.59;54.63;99357.56;7315583;19;128843;-41
2022/06/06 11:11:22;;;;;;;33.38;2.60;;;;;;;23.61;55.28;99357.41;7315292;19;129407;-41
2022/06/06 11:14:17;;;;;;;26.97;2.23;;;;;;;23.62;54.67;99357.25;7315997;19;130117;-40
2022/06/06 11:17:10;;;;;;;31.80;2.67;;;;;;;23.61;55.09;99355.59;7316069;19;129698;-42
2022/06/06 11:19:56;;;;;;;27.27;2.13;;;;;;;23.53;54.57;99347.72;7315237;19;129041;-42
2022/06/06 11:22:51;;;;;;;23.27;2.15;;;;;;;23.59;55.18;99360.19;7313456;19;129296;-40
2022/06/06 11:25:19;;;;;;;26.10;2.17;;;;;;;23.60;54.51;99353.94;7313807;19;130179;-41
2022/06/06 11:28:11;;;;;;;26.17;2.22;;;;;;;23.63;55.48;99358.06;7316615;19;129361;-43
2022/06/06 11:30:55;;;;;;;21.98;1.90;;;;;;;23.21;50.72;99358.84;7315265;19;129383;-40
2022/06/06 11:33:23;;;;;;;37.00;2.75;;;;;;;23.11;50.61;99349.41;7315918;19;130062;-42
2022/06/06 11:36:13;;;;;;;48.42;3.90;;;;;;;23.12;49.37;99356.31;7314419;19;130228;-41
2022/06/06 11:38:48;;;;;;;26.98;2.25;;;;;;;23.22;54.04;99328.19;7315371;19;129754;-41
2022/06/06 11:41:28;;;;;;;40.70;3.30;;;;;;;23.34;54.21;99334.00;7313934;19;128935;-42
2022/06/06 11:44:15;;;;;;;20.27;1.65;;;;;;;23.47;54.52;99342.28;7313935;19;129644;-41
2022/06/06 11:47:05;;;;;;;25.27;2.10;;;;;;;23.54;54.46;99343.25;7315219;19;129412;-42
2022/06/06 11:49:47;;;;;;;26.33;2.25;;;;;;;23.58;54.93;99345.44;7314698;19;130350;-41
2022/06/06 11:52:42;;;;;;;36.33;3.00;;;;;;;23.57;54.48;99343.78;7312264;19;128925;-42
2022/06/06 11:55:20;;;;;;;23.23;1.98;;;;;;;23.59;53.80;99341.81;7314780;19;129081;-40
2022/06/06 11:57:45;;;;;;;33.15;2.63;;;;;;;23.61;53.26;99333.78;7313806;19;130085;-39
2022/06/06 12:00:38;;;;;;;12.02;1.40;;;;;;;23.63;55.51;99337.06;7313442;19;131077;-41
2022/06/06 12:03:25;;;;;;;29.85;2.30;;;;;;;23.64;53.06;99336.09;7315614;19;130047;-42
2022/06/06 12:06:00;;;;;;;35.33;3.13;;;;;;;23.62;54.63;99336.25;7315278;19;129082;-42
2022/06/06 12:08:48;;;;;;;31.35;2.28;;;;;;;23.62;55.17;99331.00;7314154;19;130104;-40
2022/06/06 12:11:31;;;;;;;;;;;;;;;23.70;55.43;99324.97;7313740;19;130439;-42
2022/06/06 12:14:08;;;;;;;20.83;1.83;;;;;;;23.64;55.61;99318.53;7314115;19;128890;-41
2022/06/06 12:16:39;;;;;;;27.65;2.42;;;;;;;23.15;50.18;99321.91;7313860;19;129350;-41
2022/06/06 12:19:23;;;;;;;29.48;2.47;;;;;;;23.13;50.70;99318.63;7314235;19;129175;-42
2022/06/06 12:22:01;;;;;;;27.42;2.22;;;;;;;23.05;49.56;99301.06;7311881;19;129233;-41
2022/06/06 12:24:44;;;;;;;31.60;2.70;;;;;;;23.40;53.12;99322.88;7314295;19;129008;-41
2022/06/06 12:27:21;;;;;;;25.45;2.08;;;;;;;23.45;54.23;99324.06;7312622;19;129164;-43